Fairbanks International, AK

9:20 AM AKST on February 07, 2016 (GMT -0900)
19th and Kennedy | | Change Station
CLOSE
Current Station
Personal Weather Station
Location: Fairbanks, AK
Elevation: 440 ft
Nearby Weather Stations
Active Advisory: Dense Fog Advisory

Elev 440 ft 64.83 °N, 147.80 °W | Updated 12 minutes ago

Mostly Cloudy
Mostly Cloudy
-6.0 °F
Feels Like -6 °F
N
0.0
Wind Variable Wind from North

Today
High -- | Low -- °F
--% Chance of Precip.
Yesterday
High -- | Low -- °F
Precip. -- in
Pressure 30.05 in
Visibility 0.2 miles
Clouds Mostly Cloudy 200 ft
Mostly Cloudy 10000 ft
Mostly Cloudy 18000 ft
Windchill -6 °F
Dew Point -7 °F
Humidity 94%
Rainfall 0.00 in
Snow Depth Not available.
9:18 AM 4:54 PM
Waning Crescent, 1% visible
METAR PAFA 071753Z 00000KT 1/4SM R02L/P6000FT BR BKN002 BKN100 BKN180 M20/M22 A3000 RMK AO2 SFC VIS 1 SLP176 T12001217 11194 21222 58005 $
Pressure 30.05 in
Visibility 0.2 miles
Clouds Mostly Cloudy 200 ft
Mostly Cloudy 10000 ft
Mostly Cloudy 18000 ft
Windchill -6 °F
Dew Point -7 °F
Humidity 94%
Rainfall 0.00 in
Snow Depth Not available.
9:18 AM 4:54 PM
Waning Crescent, 1% visible
METAR PAFA 071753Z 00000KT 1/4SM R02L/P6000FT BR BKN002 BKN100 BKN180 M20/M22 A3000 RMK AO2 SFC VIS 1 SLP176 T12001217 11194 21222 58005 $

10-Day Weather Forecast

Almanac

Astronomy

Feb. 07, 2016 Rise Set
Actual Time
Civil Twilight
Nautical Twilight
Astronomical Twilight
Moon
Length of Visible Light
Length of Day
Tomorrow will be .
, % of the Moon is Illuminated

Today's Extremes

State Highs State Lows

Community

WunderPhotos

Upload Photos

1,891,274 photos uploaded!

WunderBlog® & News

Nearby

Air Quality

  Air Quality AQ Index Pollutant
Not available.

Snow Depth

Station Depth Elevation

Earthquake Activity

City Distance Mag. Time & Date
Minimum magnitude displayed is 2.5.

Coastal Water Temperatures

Place Temperature

Stations

Nearby Weather Stations

Station Location Temp. Windchill Dew Point Humidity Wind Precip. Elev Updated Type
                   

Watches & Warnings

Dense Fog Advisory
Issued: 6:43 AM AKST Feb. 7, 2016 – National Weather Service

... Dense fog advisory in effect until 10 am akst this morning...

The National Weather Service in Fairbanks has issued a dense fog
advisory... which is in effect until 10 am akst this morning.

* Visibility... one quarter mile or less.

* Timing... dense fog will gradually thin after sunrise.

Precautionary/preparedness actions...

A dense fog advisory means visibilities are frequently reduced to
near zero. Reduce vehicle speed when driving and use low beam
headlights.